createdAt,value
2017-05-29T00:01:42.430Z,2.40
2017-05-29T00:04:09.432Z,2.40
2017-05-29T00:06:36.413Z,2.12
2017-05-29T00:09:03.435Z,2.30
2017-05-29T00:11:30.500Z,1.98
2017-05-29T00:13:57.472Z,2.80
2017-05-29T00:17:37.238Z,2.52
2017-05-29T00:20:04.239Z,2.48
2017-05-29T00:22:31.322Z,2.70
2017-05-29T00:24:58.379Z,2.94
2017-05-29T00:27:25.384Z,2.08
2017-05-29T00:29:52.388Z,1.82
2017-05-29T00:32:19.369Z,3.74
2017-05-29T00:34:46.558Z,3.06
2017-05-29T00:37:13.538Z,2.80
2017-05-29T00:39:40.530Z,5.94
2017-05-29T00:42:07.536Z,2.76
2017-05-29T00:44:34.555Z,4.20
2017-05-29T00:47:01.624Z,2.80
2017-05-29T00:49:28.635Z,2.06
2017-05-29T00:51:55.643Z,3.30
2017-05-29T00:54:22.813Z,3.32
2017-05-29T00:56:49.802Z,4.28
2017-05-29T00:59:16.792Z,3.02
2017-05-29T01:01:43.865Z,2.30
2017-05-29T01:04:10.863Z,4.32
2017-05-29T01:06:37.939Z,2.90
2017-05-29T01:09:04.942Z,2.96
2017-05-29T01:11:31.928Z,2.64
2017-05-29T01:13:58.916Z,3.44
2017-05-29T01:17:36.971Z,2.64
2017-05-29T01:20:04.156Z,3.16
2017-05-29T01:22:31.148Z,3.60
2017-05-29T01:24:58.148Z,2.50
2017-05-29T01:27:25.125Z,3.62
2017-05-29T01:29:52.152Z,2.88
2017-05-29T01:32:19.187Z,3.92
2017-05-29T01:34:46.382Z,3.78
2017-05-29T01:37:13.367Z,3.36
2017-05-29T01:39:40.420Z,2.94
2017-05-29T01:42:07.431Z,3.94
2017-05-29T01:44:34.464Z,3.78
2017-05-29T01:47:01.487Z,3.44
2017-05-29T01:49:28.585Z,3.40
2017-05-29T01:51:55.586Z,4.84
2017-05-29T01:54:22.584Z,3.58
2017-05-29T01:56:49.588Z,2.98
2017-05-29T01:59:16.589Z,3.78
2017-05-29T02:01:43.661Z,2.68
2017-05-29T02:04:10.682Z,4.56
2017-05-29T02:06:37.671Z,2.96
2017-05-29T02:09:04.658Z,3.64
2017-05-29T02:11:31.633Z,3.30
2017-05-29T02:13:58.978Z,3.86
2017-05-29T02:17:36.735Z,3.14
2017-05-29T02:20:03.735Z,2.82
2017-05-29T02:22:30.735Z,2.60
2017-05-29T02:24:57.791Z,3.22
2017-05-29T02:27:24.772Z,4.78
2017-05-29T02:29:51.776Z,4.26
2017-05-29T02:32:18.773Z,3.94
2017-05-29T02:34:45.773Z,3.60
2017-05-29T02:37:12.854Z,3.96
2017-05-29T02:39:39.840Z,3.54
2017-05-29T02:42:06.823Z,3.12
2017-05-29T02:44:33.818Z,3.42
2017-05-29T02:47:00.802Z,4.70
2017-05-29T02:49:27.850Z,3.78
2017-05-29T02:51:54.853Z,7.82
2017-05-29T02:54:21.837Z,4.38
2017-05-29T02:56:48.842Z,2.96
2017-05-29T02:59:15.832Z,3.98
2017-05-29T03:01:42.876Z,3.62
2017-05-29T03:04:09.834Z,3.74
2017-05-29T03:06:36.837Z,5.10
2017-05-29T03:09:03.840Z,5.88
2017-05-29T03:11:30.908Z,4.22
2017-05-29T03:13:58.164Z,4.22
2017-05-29T03:17:37.173Z,4.32
2017-05-29T03:20:04.323Z,6.44
2017-05-29T03:22:31.294Z,4.26
2017-05-29T03:24:58.355Z,5.48
2017-05-29T03:27:24.633Z,5.10
2017-05-29T03:29:51.623Z,4.30
2017-05-29T03:32:18.732Z,5.40
2017-05-29T03:34:45.756Z,4.26
2017-05-29T03:37:12.012Z,3.96
2017-05-29T03:39:39.017Z,4.46
2017-05-29T03:42:06.061Z,3.78
2017-05-29T03:44:33.155Z,5.04
2017-05-29T03:47:00.156Z,4.22
2017-05-29T03:49:27.133Z,5.40
2017-05-29T03:51:54.151Z,4.74
2017-05-29T03:54:21.161Z,4.42
2017-05-29T03:56:48.282Z,6.44
2017-05-29T03:59:15.304Z,4.34
2017-05-29T04:01:42.377Z,5.08
2017-05-29T04:04:09.416Z,4.12
2017-05-29T04:06:36.460Z,4.02
2017-05-29T04:09:03.603Z,6.54
2017-05-29T04:11:30.606Z,4.24
2017-05-29T04:13:57.586Z,4.00
2017-05-29T04:17:37.059Z,8.88
2017-05-29T04:20:04.183Z,13.98
2017-05-29T04:22:31.192Z,8.58
2017-05-29T04:24:58.260Z,9.10
2017-05-29T04:27:25.260Z,4.80
2017-05-29T04:29:52.239Z,3.88
2017-05-29T04:32:19.302Z,5.22
2017-05-29T04:34:46.280Z,5.36
2017-05-29T04:37:13.313Z,5.26
2017-05-29T04:39:40.291Z,5.08
2017-05-29T04:42:07.268Z,4.60
2017-05-29T04:44:33.572Z,4.68
2017-05-29T04:47:00.589Z,4.60
2017-05-29T04:49:27.574Z,4.30
2017-05-29T04:51:54.565Z,4.12
2017-05-29T04:54:21.589Z,5.32
2017-05-29T04:56:48.630Z,7.60
2017-05-29T04:59:15.602Z,5.44
2017-05-29T05:01:42.590Z,4.20
2017-05-29T05:04:09.563Z,5.12
2017-05-29T05:06:36.693Z,4.80
2017-05-29T05:09:03.771Z,5.08
2017-05-29T05:11:30.822Z,5.00
2017-05-29T05:13:57.817Z,3.92
2017-05-29T05:17:37.047Z,4.14
2017-05-29T05:20:04.171Z,5.14
2017-05-29T05:22:31.203Z,4.42
2017-05-29T05:24:57.452Z,3.98
2017-05-29T05:27:24.487Z,3.96
2017-05-29T05:29:51.495Z,5.78
2017-05-29T05:32:18.535Z,5.40
2017-05-29T05:34:45.531Z,4.12
2017-05-29T05:37:12.538Z,3.88
2017-05-29T05:39:39.537Z,4.56
2017-05-29T05:42:06.539Z,3.40
2017-05-29T05:44:33.520Z,3.92
2017-05-29T05:47:00.494Z,3.50
2017-05-29T05:49:27.500Z,4.14
2017-05-29T05:51:54.551Z,3.12
2017-05-29T05:54:21.535Z,4.48
2017-05-29T05:56:48.548Z,5.16
2017-05-29T05:59:15.527Z,4.00
2017-05-29T06:01:42.583Z,4.38
2017-05-29T06:04:09.559Z,4.24
2017-05-29T06:06:36.588Z,4.40
2017-05-29T06:09:03.596Z,3.88
2017-05-29T06:11:30.583Z,3.64
2017-05-29T06:13:57.556Z,4.64
2017-05-29T06:17:36.810Z,3.64
2017-05-29T06:20:04.018Z,3.60
2017-05-29T06:22:31.008Z,3.58
2017-05-29T06:24:58.094Z,5.24
2017-05-29T06:27:25.162Z,3.40
2017-05-29T06:29:52.148Z,5.26
2017-05-29T06:32:19.141Z,3.16
2017-05-29T06:34:45.435Z,3.12
2017-05-29T06:37:12.436Z,4.00
2017-05-29T06:39:39.495Z,3.48
2017-05-29T06:42:06.515Z,4.30
2017-05-29T06:44:33.507Z,4.14
2017-05-29T06:47:00.503Z,5.20
2017-05-29T06:49:27.498Z,3.42
2017-05-29T06:51:54.625Z,3.96
2017-05-29T06:54:21.638Z,3.98
2017-05-29T06:56:48.626Z,3.92
2017-05-29T06:59:15.728Z,5.88
2017-05-29T07:01:42.733Z,4.68
2017-05-29T07:04:09.727Z,4.82
2017-05-29T07:06:36.807Z,4.42
2017-05-29T07:09:03.819Z,4.32
2017-05-29T07:11:30.849Z,5.32
2017-05-29T07:13:57.834Z,4.86
2017-05-29T07:17:36.883Z,6.38
2017-05-29T07:20:03.899Z,5.14
2017-05-29T07:22:30.899Z,6.32
2017-05-29T07:24:57.893Z,4.12
2017-05-29T07:27:31.039Z,5.90
2017-05-29T07:29:58.323Z,7.18
2017-05-29T07:32:25.336Z,5.06
2017-05-29T07:34:52.367Z,5.80
2017-05-29T07:37:19.369Z,5.16
2017-05-29T07:39:46.375Z,6.60
2017-05-29T07:42:13.496Z,5.92
2017-05-29T07:44:40.481Z,5.54
2017-05-29T07:47:07.499Z,5.72
2017-05-29T07:49:34.504Z,6.58
2017-05-29T07:52:01.516Z,6.64
2017-05-29T07:54:28.606Z,9.34
2017-05-29T07:56:55.599Z,8.78
2017-05-29T07:59:22.697Z,7.22
2017-05-29T08:01:49.676Z,7.22
2017-05-29T08:04:16.655Z,6.48
2017-05-29T08:06:43.856Z,7.62
2017-05-29T08:09:10.846Z,7.30
2017-05-29T08:11:37.823Z,6.78
2017-05-29T08:14:04.795Z,6.80
2017-05-29T08:17:36.963Z,6.68
2017-05-29T08:20:04.034Z,6.96
2017-05-29T08:22:31.018Z,6.52
2017-05-29T08:24:57.978Z,6.50
2017-05-29T08:27:24.961Z,6.42
2017-05-29T08:29:51.933Z,6.86
2017-05-29T08:32:18.984Z,6.96
2017-05-29T08:34:45.216Z,7.08
2017-05-29T08:37:12.200Z,7.52
2017-05-29T08:39:46.214Z,8.04
2017-05-29T08:42:13.271Z,6.78
2017-05-29T08:44:40.257Z,6.98
2017-05-29T08:47:07.251Z,6.28
2017-05-29T08:49:34.260Z,7.08
2017-05-29T08:52:01.259Z,7.00
2017-05-29T08:54:28.587Z,8.26
2017-05-29T08:56:55.571Z,7.06
2017-05-29T08:59:22.588Z,10.30
2017-05-29T09:01:49.836Z,7.92
2017-05-29T09:04:16.811Z,7.60
2017-05-29T09:06:43.790Z,9.98
2017-05-29T09:09:10.880Z,7.00
2017-05-29T09:11:37.872Z,7.14
2017-05-29T09:14:04.112Z,7.52
2017-05-29T09:17:37.144Z,6.90
2017-05-29T09:20:04.137Z,7.04
2017-05-29T09:22:31.183Z,6.92
2017-05-29T09:24:57.424Z,8.68
2017-05-29T09:27:24.501Z,7.86
2017-05-29T09:29:51.686Z,7.60
2017-05-29T09:32:18.682Z,7.76
2017-05-29T09:34:45.736Z,7.86
2017-05-29T09:37:13.015Z,7.60
2017-05-29T09:39:40.190Z,8.20
2017-05-29T09:42:07.314Z,7.26
2017-05-29T09:44:34.307Z,9.26
2017-05-29T09:47:01.285Z,7.58
2017-05-29T09:49:28.279Z,7.96
2017-05-29T09:51:55.330Z,7.22
2017-05-29T09:54:22.412Z,8.60
2017-05-29T09:56:49.583Z,8.66
2017-05-29T09:59:16.559Z,9.96
2017-05-29T10:01:43.570Z,8.46
2017-05-29T10:04:10.658Z,8.90
2017-05-29T10:06:37.659Z,9.26
2017-05-29T10:09:04.743Z,8.76
2017-05-29T10:11:31.764Z,7.24
2017-05-29T10:13:58.750Z,9.56
2017-05-29T10:17:37.019Z,8.36
2017-05-29T10:20:04.090Z,6.86
2017-05-29T10:22:31.091Z,8.64
2017-05-29T10:24:58.069Z,8.00
2017-05-29T10:27:25.072Z,7.56
2017-05-29T10:29:52.066Z,8.14
2017-05-29T10:32:19.135Z,7.56
2017-05-29T10:34:46.115Z,7.76
2017-05-29T10:37:13.106Z,6.54
2017-05-29T10:39:40.095Z,9.46
2017-05-29T10:42:07.105Z,7.86
2017-05-29T10:44:34.153Z,9.76
2017-05-29T10:47:01.140Z,7.46
2017-05-29T10:49:28.160Z,8.36
2017-05-29T10:51:55.195Z,8.16
2017-05-29T10:54:22.164Z,9.52
2017-05-29T10:56:49.138Z,7.06
2017-05-29T10:59:16.094Z,6.14
2017-05-29T11:01:43.091Z,6.58
2017-05-29T11:04:10.059Z,6.68
2017-05-29T11:06:37.147Z,5.96
2017-05-29T11:09:04.130Z,5.72
2017-05-29T11:11:31.103Z,6.04
2017-05-29T11:13:58.111Z,6.16
2017-05-29T11:17:37.373Z,5.92
2017-05-29T11:20:04.373Z,6.14
2017-05-29T11:22:31.373Z,5.40
2017-05-29T11:24:58.457Z,5.88
2017-05-29T11:27:25.438Z,5.96
2017-05-29T11:29:52.415Z,5.42
2017-05-29T11:32:19.632Z,5.56
2017-05-29T11:34:46.616Z,6.72
2017-05-29T11:37:13.668Z,6.16
2017-05-29T11:39:40.691Z,6.52
2017-05-29T11:42:07.655Z,5.16
2017-05-29T11:44:34.825Z,5.84
2017-05-29T11:47:01.816Z,6.24
2017-05-29T11:49:28.794Z,6.20
2017-05-29T11:51:55.889Z,6.28
2017-05-29T11:54:22.898Z,6.48
2017-05-29T11:56:49.895Z,7.82
2017-05-29T11:59:16.889Z,6.70
2017-05-29T12:01:43.895Z,6.80
2017-05-29T12:04:11.015Z,7.08
2017-05-29T12:06:38.077Z,6.26
2017-05-29T12:09:05.071Z,7.98
2017-05-29T12:11:32.051Z,5.78
2017-05-29T12:13:59.009Z,6.20
2017-05-29T12:17:37.039Z,5.40
2017-05-29T12:20:04.016Z,5.40
2017-05-29T12:22:31.080Z,6.08
2017-05-29T12:24:58.055Z,6.24
2017-05-29T12:27:25.067Z,5.72
2017-05-29T12:29:52.056Z,6.40
2017-05-29T12:32:19.092Z,8.06
2017-05-29T12:34:46.143Z,8.28
2017-05-29T12:37:13.132Z,7.40
2017-05-29T12:39:40.230Z,8.00
2017-05-29T12:42:07.313Z,7.30
2017-05-29T12:44:34.386Z,8.88
2017-05-29T12:47:01.349Z,9.98
2017-05-29T12:49:28.359Z,9.64
2017-05-29T12:51:55.817Z,10.02
2017-05-29T12:54:22.936Z,9.82
2017-05-29T12:56:50.131Z,10.40
2017-05-29T12:59:17.118Z,11.60
2017-05-29T13:01:44.132Z,12.62
2017-05-29T13:04:11.120Z,10.18
2017-05-29T13:06:38.132Z,10.10
2017-05-29T13:09:05.231Z,8.30
2017-05-29T13:11:32.236Z,11.08
2017-05-29T13:13:59.207Z,9.86
2017-05-29T13:17:37.195Z,9.24
2017-05-29T13:20:04.231Z,7.58
2017-05-29T13:22:31.278Z,8.38
2017-05-29T13:24:58.274Z,8.32
2017-05-29T13:27:25.279Z,9.06
2017-05-29T13:29:52.244Z,9.04
2017-05-29T13:32:19.261Z,9.76
2017-05-29T13:34:46.475Z,10.38
2017-05-29T13:37:13.451Z,12.36
2017-05-29T13:39:40.444Z,9.58
2017-05-29T13:42:06.751Z,10.84
2017-05-29T13:44:33.804Z,11.76
2017-05-29T13:47:00.884Z,10.12
2017-05-29T13:49:27.978Z,11.42
2017-05-29T13:51:55.251Z,12.58
2017-05-29T13:54:22.253Z,11.86
2017-05-29T13:56:49.274Z,11.56
2017-05-29T13:59:16.315Z,12.62
2017-05-29T14:01:43.353Z,8.96
2017-05-29T14:04:12.326Z,12.16
2017-05-29T14:06:39.442Z,12.20
2017-05-29T14:09:06.438Z,12.78
2017-05-29T14:11:33.430Z,10.90
2017-05-29T14:14:00.483Z,13.14
2017-05-29T14:17:37.560Z,13.02
2017-05-29T14:20:04.560Z,12.26
2017-05-29T14:22:31.535Z,13.44
2017-05-29T14:24:58.839Z,15.18
2017-05-29T14:27:25.954Z,10.94
2017-05-29T14:29:52.931Z,12.76
2017-05-29T14:32:19.939Z,10.24
2017-05-29T14:34:46.911Z,11.92
2017-05-29T14:37:14.051Z,9.62
2017-05-29T14:39:41.037Z,9.64
2017-05-29T14:42:08.044Z,10.74
2017-05-29T14:44:35.139Z,9.46
2017-05-29T14:47:02.163Z,13.74
2017-05-29T14:49:29.356Z,12.12
2017-05-29T14:51:56.368Z,11.48
2017-05-29T14:54:23.440Z,12.30
2017-05-29T14:56:50.411Z,13.18
2017-05-29T14:59:17.513Z,12.90
2017-05-29T15:01:44.627Z,13.22
2017-05-29T15:04:11.616Z,11.02
2017-05-29T15:06:38.592Z,12.40
2017-05-29T15:09:05.575Z,11.16
2017-05-29T15:11:32.549Z,9.60
2017-05-29T15:13:59.595Z,10.90
2017-05-29T15:17:36.852Z,10.20
2017-05-29T15:20:03.937Z,10.20
2017-05-29T15:22:30.905Z,11.84
2017-05-29T15:24:57.877Z,10.40
2017-05-29T15:27:24.171Z,9.82
2017-05-29T15:29:51.203Z,9.96
2017-05-29T15:32:18.225Z,8.56
2017-05-29T15:34:45.272Z,9.66
2017-05-29T15:37:12.305Z,9.24
2017-05-29T15:39:39.325Z,8.12
2017-05-29T15:42:06.404Z,9.42
2017-05-29T15:44:32.643Z,8.34
2017-05-29T15:46:59.621Z,9.16
2017-05-29T15:49:26.630Z,9.94
2017-05-29T15:51:53.587Z,10.30
2017-05-29T15:54:20.579Z,10.86
2017-05-29T15:56:47.594Z,10.58
2017-05-29T15:59:14.659Z,8.84
2017-05-29T16:01:41.811Z,10.10
2017-05-29T16:04:08.825Z,8.44
2017-05-29T16:06:35.792Z,7.80
2017-05-29T16:09:02.890Z,8.30
2017-05-29T16:11:29.865Z,8.86
2017-05-29T16:13:56.843Z,8.82
2017-05-29T16:17:37.103Z,9.70
2017-05-29T16:20:04.147Z,8.00
2017-05-29T16:22:31.188Z,8.02
2017-05-29T16:24:58.172Z,8.20
2017-05-29T16:27:25.173Z,8.18
2017-05-29T16:29:52.151Z,8.18
2017-05-29T16:32:19.215Z,9.24
2017-05-29T16:34:46.187Z,9.64
2017-05-29T16:37:13.187Z,8.86
2017-05-29T16:39:40.150Z,9.16
2017-05-29T16:42:07.142Z,9.06
2017-05-29T16:44:34.251Z,10.38
2017-05-29T16:47:01.216Z,8.20
2017-05-29T16:49:28.205Z,10.50
2017-05-29T16:51:55.187Z,10.76
2017-05-29T16:54:22.215Z,12.04
2017-05-29T16:56:49.256Z,10.64
2017-05-29T16:59:16.251Z,9.02
2017-05-29T17:01:43.219Z,9.80
2017-05-29T17:04:10.200Z,9.56
2017-05-29T17:06:37.178Z,8.84
2017-05-29T17:09:04.243Z,9.38
2017-05-29T17:11:31.292Z,8.92
2017-05-29T17:13:58.310Z,7.44
2017-05-29T17:17:36.527Z,10.06
2017-05-29T17:20:03.775Z,7.66
2017-05-29T17:22:30.751Z,7.44
2017-05-29T17:24:57.735Z,8.68
2017-05-29T17:27:24.720Z,12.12
2017-05-29T17:29:51.688Z,9.44
2017-05-29T17:32:18.743Z,9.52
2017-05-29T17:34:45.714Z,8.36
2017-05-29T17:37:12.684Z,9.78
2017-05-29T17:39:39.680Z,8.30
2017-05-29T17:42:06.675Z,8.48
2017-05-29T17:44:33.723Z,8.10
2017-05-29T17:47:00.699Z,6.94
2017-05-29T17:49:27.687Z,7.00
2017-05-29T17:51:54.676Z,7.40
2017-05-29T17:54:21.656Z,7.94
2017-05-29T17:56:48.751Z,7.88
2017-05-29T17:59:15.737Z,6.52
2017-05-29T18:01:42.704Z,5.98
2017-05-29T18:04:08.960Z,5.82
2017-05-29T18:06:36.075Z,5.94
2017-05-29T18:09:03.182Z,5.12
2017-05-29T18:11:30.174Z,7.90
2017-05-29T18:13:57.160Z,8.36
2017-05-29T18:17:37.119Z,7.66
2017-05-29T18:20:04.111Z,6.68
2017-05-29T18:22:31.207Z,7.70
2017-05-29T18:24:57.432Z,8.24
2017-05-29T18:27:24.402Z,8.16
2017-05-29T18:29:51.413Z,7.58
2017-05-29T18:32:18.436Z,6.68
2017-05-29T18:34:45.558Z,7.26
2017-05-29T18:37:12.548Z,6.32
2017-05-29T18:39:39.576Z,6.76
2017-05-29T18:42:06.609Z,6.14
2017-05-29T18:44:33.587Z,6.88
2017-05-29T18:47:00.656Z,7.66
2017-05-29T18:49:27.650Z,6.46
2017-05-29T18:51:54.632Z,7.60
2017-05-29T18:54:20.908Z,7.64
2017-05-29T18:56:47.892Z,7.12
2017-05-29T18:59:15.009Z,7.46
2017-05-29T19:01:42.107Z,7.52
2017-05-29T19:04:09.171Z,7.54
2017-05-29T19:06:36.305Z,7.00
2017-05-29T19:09:03.350Z,6.84
2017-05-29T19:11:30.412Z,7.24
2017-05-29T19:13:57.445Z,6.58
2017-05-29T19:17:37.051Z,7.72
2017-05-29T19:20:04.272Z,8.58
2017-05-29T19:22:30.727Z,7.82
2017-05-29T19:24:56.971Z,6.34
2017-05-29T19:27:23.990Z,14.08
2017-05-29T19:29:50.977Z,7.44
2017-05-29T19:32:17.968Z,6.96
2017-05-29T19:34:45.072Z,7.62
2017-05-29T19:37:12.063Z,8.38
2017-05-29T19:39:39.045Z,10.12
2017-05-29T19:42:06.015Z,9.28
2017-05-29T19:44:33.009Z,7.84
2017-05-29T19:47:00.089Z,8.50
2017-05-29T19:49:27.080Z,7.76
2017-05-29T19:51:54.066Z,9.42
2017-05-29T19:54:21.048Z,8.72
2017-05-29T19:56:48.051Z,10.20
2017-05-29T19:59:15.227Z,11.10
2017-05-29T20:01:41.508Z,10.66
2017-05-29T20:04:08.524Z,10.58
2017-05-29T20:06:35.533Z,12.32
2017-05-29T20:09:02.567Z,11.86
2017-05-29T20:11:28.912Z,13.10
2017-05-29T20:13:55.936Z,14.08
2017-05-29T20:17:37.375Z,12.44
2017-05-29T20:20:04.381Z,12.30
2017-05-29T20:22:31.394Z,11.64
2017-05-29T20:24:57.643Z,13.24
2017-05-29T20:27:24.624Z,11.58
2017-05-29T20:29:51.690Z,14.56
2017-05-29T20:32:17.945Z,11.92
2017-05-29T20:34:44.971Z,12.32
2017-05-29T20:37:11.954Z,12.72
2017-05-29T20:39:38.921Z,12.60
2017-05-29T20:42:05.971Z,14.62
2017-05-29T20:44:32.954Z,12.04
2017-05-29T20:46:59.936Z,12.36
2017-05-29T20:49:26.918Z,12.46
2017-05-29T20:51:53.139Z,12.24
2017-05-29T20:54:20.195Z,13.62
2017-05-29T20:56:47.199Z,12.62
2017-05-29T20:59:14.200Z,11.74
2017-05-29T21:01:41.205Z,10.10
2017-05-29T21:04:08.239Z,13.66
2017-05-29T21:06:35.089Z,10.92
2017-05-29T21:09:02.162Z,10.26
2017-05-29T21:11:29.143Z,11.34
2017-05-29T21:13:55.448Z,11.16
2017-05-29T21:17:36.987Z,10.74
2017-05-29T21:20:04.028Z,10.32
2017-05-29T21:22:31.089Z,10.54
2017-05-29T21:24:57.452Z,18.08
2017-05-29T21:27:24.471Z,15.06
2017-05-29T21:47:18.223Z,18.98
2017-05-29T21:49:45.278Z,19.40
2017-05-29T21:52:12.363Z,19.22
2017-05-29T21:54:39.373Z,16.08
2017-05-29T21:57:06.364Z,17.40
2017-05-29T21:59:33.342Z,20.20
2017-05-29T22:02:00.858Z,25.22
2017-05-29T22:04:28.007Z,20.68
2017-05-29T22:06:55.003Z,23.12
2017-05-29T22:09:22.030Z,23.70
2017-05-29T22:11:49.061Z,27.58
2017-05-29T22:14:16.064Z,27.80
2017-05-29T22:17:38.370Z,25.24
2017-05-29T22:20:05.363Z,27.60
2017-05-29T22:22:32.361Z,27.44
2017-05-29T22:24:59.348Z,26.54
2017-05-29T22:27:26.335Z,25.94
2017-05-29T22:29:53.523Z,26.64
2017-05-29T22:32:20.516Z,28.40
2017-05-29T22:34:47.487Z,28.68
2017-05-29T22:37:14.547Z,29.34
2017-05-29T22:39:41.544Z,27.78
2017-05-29T22:42:08.627Z,27.62
2017-05-29T22:44:35.614Z,29.90
2017-05-29T22:47:02.587Z,28.22
2017-05-29T22:49:29.574Z,28.06
2017-05-29T22:51:56.550Z,27.82
2017-05-29T22:54:23.624Z,27.70
2017-05-29T22:56:50.623Z,27.68
2017-05-29T22:59:17.623Z,25.64
2017-05-29T23:01:44.606Z,25.52
2017-05-29T23:04:11.584Z,26.58
2017-05-29T23:06:38.667Z,27.76
2017-05-29T23:09:05.667Z,24.92
2017-05-29T23:11:32.647Z,31.10
2017-05-29T23:13:59.630Z,28.00
2017-05-29T23:17:37.199Z,29.74
2017-05-29T23:20:04.196Z,28.98
2017-05-29T23:22:31.213Z,32.42
2017-05-29T23:24:57.456Z,31.82
2017-05-29T23:27:24.460Z,28.10
2017-05-29T23:29:51.443Z,31.84
2017-05-29T23:32:18.427Z,30.76
2017-05-29T23:34:45.508Z,30.20
2017-05-29T23:37:12.523Z,27.98
2017-05-29T23:39:39.507Z,28.92
2017-05-29T23:42:06.607Z,29.26
2017-05-29T23:44:33.594Z,27.98
2017-05-29T23:47:00.563Z,26.74
2017-05-29T23:49:27.547Z,23.22
2017-05-29T23:51:53.827Z,23.26
2017-05-29T23:54:20.875Z,23.24
2017-05-29T23:56:47.863Z,23.78
2017-05-29T23:59:14.839Z,22.56
